createdAt,value
2023-02-21T00:00:24.255Z,10.19
2023-02-21T00:01:25.050Z,10.26
2023-02-21T00:02:24.292Z,10.25
2023-02-21T00:03:24.182Z,10.35
2023-02-21T00:04:24.168Z,10.26
2023-02-21T00:05:24.177Z,10.23
2023-02-21T00:06:24.191Z,10.31
2023-02-21T00:07:24.169Z,10.23
2023-02-21T00:08:24.127Z,10.38
2023-02-21T00:09:24.121Z,10.41
2023-02-21T00:10:24.109Z,10.25
2023-02-21T00:11:24.132Z,10.22
2023-02-21T00:12:24.135Z,10.13
2023-02-21T00:13:24.100Z,10.20
2023-02-21T00:14:24.098Z,10.16
2023-02-21T00:15:24.063Z,10.17
2023-02-21T00:16:24.123Z,10.20
2023-02-21T00:17:24.126Z,10.20
2023-02-21T00:18:24.031Z,10.23
2023-02-21T00:19:24.031Z,10.19
2023-02-21T00:20:24.013Z,10.10
2023-02-21T00:21:23.989Z,10.16
2023-02-21T00:22:24.018Z,10.04
2023-02-21T00:23:23.969Z,10.15
2023-02-21T00:24:24.156Z,10.15
2023-02-21T00:25:23.962Z,10.19
2023-02-21T00:26:24.099Z,10.22
2023-02-21T00:27:23.978Z,10.15
2023-02-21T00:28:23.922Z,10.23
2023-02-21T00:29:24.002Z,10.23
2023-02-21T00:30:24.035Z,10.23
2023-02-21T00:31:23.981Z,10.23
2023-02-21T00:32:23.915Z,10.20
2023-02-21T00:33:23.933Z,10.16
2023-02-21T00:34:23.879Z,10.07
2023-02-21T00:35:23.849Z,10.16
2023-02-21T00:36:23.835Z,10.09
2023-02-21T00:37:23.822Z,10.13
2023-02-21T00:38:26.309Z,10.09
2023-02-21T00:39:23.798Z,10.16
2023-02-21T00:40:23.786Z,10.17
2023-02-21T00:41:23.787Z,10.13
2023-02-21T00:42:23.772Z,10.12
2023-02-21T00:43:23.772Z,10.07
2023-02-21T00:44:23.778Z,10.22
2023-02-21T00:45:23.734Z,10.04
2023-02-21T00:46:23.797Z,10.02
2023-02-21T00:47:23.721Z,10.04
2023-02-21T00:48:23.705Z,9.98
2023-02-21T00:49:23.726Z,10.09
2023-02-21T00:50:23.704Z,10.20
2023-02-21T00:51:23.669Z,10.07
2023-02-21T00:52:23.655Z,10.17
2023-02-21T00:53:23.673Z,10.10
2023-02-21T00:54:23.644Z,10.04
2023-02-21T00:55:23.659Z,10.15
2023-02-21T00:56:23.611Z,10.07
2023-02-21T00:57:23.596Z,10.01
2023-02-21T00:58:23.591Z,9.98
2023-02-21T00:59:23.587Z,10.02
2023-02-21T01:00:23.601Z,10.09
2023-02-21T01:01:23.616Z,10.01
2023-02-21T01:02:23.557Z,9.98
2023-02-21T01:03:23.539Z,9.99
2023-02-21T01:04:23.555Z,9.98
2023-02-21T01:05:23.513Z,9.99
2023-02-21T01:06:23.530Z,9.95
2023-02-21T01:07:23.489Z,9.95
2023-02-21T01:08:23.484Z,10.09
2023-02-21T01:09:23.480Z,10.07
2023-02-21T01:11:15.601Z,10.05
2023-02-21T01:12:15.256Z,9.99
2023-02-21T01:13:15.250Z,10.05
2023-02-21T01:14:15.238Z,10.02
2023-02-21T01:15:15.214Z,10.10
2023-02-21T01:16:15.217Z,10.16
2023-02-21T01:17:15.227Z,10.17
2023-02-21T01:18:15.206Z,10.04
2023-02-21T01:19:15.197Z,10.07
2023-02-21T01:20:15.175Z,10.04
2023-02-21T01:21:15.487Z,10.09
2023-02-21T01:22:15.165Z,10.01
2023-02-21T01:23:15.140Z,10.10
2023-02-21T01:24:15.150Z,10.07
2023-02-21T01:25:15.124Z,10.04
2023-02-21T01:26:15.111Z,10.07
2023-02-21T01:27:15.092Z,10.05
2023-02-21T01:28:15.162Z,10.09
2023-02-21T01:29:15.075Z,10.12
2023-02-21T01:30:15.116Z,10.16
2023-02-21T01:31:15.534Z,10.09
2023-02-21T01:32:15.040Z,10.09
2023-02-21T01:33:15.037Z,10.20
2023-02-21T01:34:15.040Z,10.15
2023-02-21T01:35:15.016Z,10.17
2023-02-21T01:36:15.002Z,10.10
2023-02-21T01:37:14.989Z,10.19
2023-02-21T01:38:14.975Z,10.09
2023-02-21T01:39:14.968Z,10.19
2023-02-21T01:40:14.965Z,10.12
2023-02-21T01:41:15.324Z,10.05
2023-02-21T01:42:14.930Z,10.15
2023-02-21T01:43:14.915Z,10.09
2023-02-21T01:44:14.901Z,10.17
2023-02-21T01:45:14.922Z,10.10
2023-02-21T01:46:14.893Z,9.99
2023-02-21T01:47:14.877Z,10.10
2023-02-21T01:48:14.864Z,10.12
2023-02-21T01:49:14.857Z,10.05
2023-02-21T01:50:14.865Z,9.99
2023-02-21T01:51:15.231Z,10.15
2023-02-21T01:52:14.834Z,10.05
2023-02-21T01:53:14.808Z,10.09
2023-02-21T01:54:14.823Z,10.05
2023-02-21T01:55:14.797Z,10.09
2023-02-21T01:56:14.777Z,10.09
2023-02-21T01:57:14.772Z,10.07
2023-02-21T01:58:14.765Z,10.16
2023-02-21T01:59:14.746Z,10.17
2023-02-21T02:00:14.732Z,10.12
2023-02-21T02:01:15.125Z,10.22
2023-02-21T02:02:14.706Z,10.15
2023-02-21T02:03:14.730Z,10.10
2023-02-21T02:04:14.707Z,10.10
2023-02-21T02:05:14.676Z,10.13
2023-02-21T02:06:14.678Z,10.16
2023-02-21T02:07:14.683Z,10.23
2023-02-21T02:08:14.647Z,10.13
2023-02-21T02:09:14.652Z,10.09
2023-02-21T02:10:14.633Z,10.17
2023-02-21T02:11:15.026Z,10.16
2023-02-21T02:12:14.592Z,10.19
2023-02-21T02:13:14.593Z,10.23
2023-02-21T02:14:14.578Z,10.22
2023-02-21T02:15:14.623Z,10.28
2023-02-21T02:16:14.702Z,10.30
2023-02-21T02:17:16.516Z,10.28
2023-02-21T02:18:14.536Z,10.28
2023-02-21T02:19:14.556Z,10.28
2023-02-21T02:20:14.539Z,10.28
2023-02-21T02:21:14.741Z,10.25
2023-02-21T02:22:14.524Z,10.26
2023-02-21T02:23:14.497Z,10.38
2023-02-21T02:24:14.475Z,10.35
2023-02-21T02:25:14.461Z,10.28
2023-02-21T02:26:14.466Z,10.28
2023-02-21T02:27:14.438Z,10.40
2023-02-21T02:28:14.441Z,10.33
2023-02-21T02:29:14.447Z,10.34
2023-02-21T02:30:14.478Z,10.37
2023-02-21T02:31:14.835Z,10.41
2023-02-21T02:32:14.426Z,10.40
2023-02-21T02:33:14.385Z,10.40
2023-02-21T02:34:14.372Z,10.42
2023-02-21T02:35:14.342Z,10.42
2023-02-21T02:36:14.336Z,10.56
2023-02-21T02:37:14.346Z,10.57
2023-02-21T02:38:14.345Z,10.57
2023-02-21T02:39:14.315Z,10.53
2023-02-21T02:40:14.297Z,10.53
2023-02-21T02:41:14.658Z,10.53
2023-02-21T02:42:14.274Z,10.64
2023-02-21T02:43:14.254Z,10.63
2023-02-21T02:44:14.264Z,10.69
2023-02-21T02:45:14.253Z,10.56
2023-02-21T02:46:14.252Z,10.61
2023-02-21T02:47:14.239Z,10.63
2023-02-21T02:48:14.211Z,10.60
2023-02-21T02:49:14.211Z,10.57
2023-02-21T02:50:14.200Z,10.54
2023-02-21T02:51:14.498Z,10.54
2023-02-21T02:52:14.151Z,10.61
2023-02-21T02:53:14.151Z,10.53
2023-02-21T02:54:14.154Z,10.60
2023-02-21T02:55:14.225Z,10.57
2023-02-21T02:56:14.111Z,10.56
2023-02-21T02:57:14.105Z,10.54
2023-02-21T02:58:14.102Z,10.59
2023-02-21T02:59:14.087Z,10.57
2023-02-21T03:00:14.086Z,10.56
2023-02-21T03:01:14.368Z,10.60
2023-02-21T03:02:14.080Z,10.69
2023-02-21T03:03:14.094Z,10.59
2023-02-21T03:04:14.022Z,10.57
2023-02-21T03:05:14.034Z,10.69
2023-02-21T03:06:14.015Z,10.64
2023-02-21T03:07:14.001Z,10.72
2023-02-21T03:08:13.984Z,10.60
2023-02-21T03:09:14.002Z,10.60
2023-02-21T03:10:13.974Z,10.69
2023-02-21T03:11:14.336Z,10.68
2023-02-21T03:12:13.954Z,10.64
2023-02-21T03:13:13.950Z,10.68
2023-02-21T03:14:13.926Z,10.67
2023-02-21T03:15:13.922Z,10.64
2023-02-21T03:16:13.917Z,10.67
2023-02-21T03:17:13.915Z,10.71
2023-02-21T03:18:13.877Z,10.71
2023-02-21T03:19:13.878Z,10.69
2023-02-21T03:20:13.858Z,10.72
2023-02-21T03:21:14.130Z,10.64
2023-02-21T03:22:13.840Z,10.74
2023-02-21T03:23:13.820Z,10.74
2023-02-21T03:24:13.886Z,10.75
2023-02-21T03:25:13.813Z,10.72
2023-02-21T03:26:13.831Z,10.63
2023-02-21T03:27:13.782Z,10.69
2023-02-21T03:28:13.768Z,10.74
2023-02-21T03:29:13.756Z,10.76
2023-02-21T03:30:13.793Z,10.76
2023-02-21T03:31:14.233Z,10.74
2023-02-21T03:32:13.811Z,10.75
2023-02-21T03:33:13.711Z,10.81
2023-02-21T03:34:13.698Z,10.76
2023-02-21T03:35:13.710Z,10.82
2023-02-21T03:36:13.684Z,10.86
2023-02-21T03:37:13.663Z,10.79
2023-02-21T03:38:13.656Z,10.84
2023-02-21T03:39:13.641Z,10.81
2023-02-21T03:40:13.640Z,10.79
2023-02-21T03:41:13.894Z,10.79
2023-02-21T03:42:13.634Z,10.78
2023-02-21T03:43:13.617Z,10.79
2023-02-21T03:44:13.614Z,10.90
2023-02-21T03:45:13.606Z,10.82
2023-02-21T03:46:13.620Z,10.76
2023-02-21T03:47:13.567Z,10.81
2023-02-21T03:48:17.668Z,10.86
2023-02-21T03:49:14.538Z,10.78
2023-02-21T03:50:13.529Z,10.82
2023-02-21T03:51:13.975Z,10.92
2023-02-21T03:52:13.509Z,10.86
2023-02-21T03:53:13.503Z,10.89
2023-02-21T03:54:13.490Z,10.90
2023-02-21T03:55:13.526Z,10.89
2023-02-21T03:56:13.477Z,10.84
2023-02-21T03:57:13.458Z,10.84
2023-02-21T03:58:14.001Z,10.92
2023-02-21T03:59:13.505Z,10.87
2023-02-21T04:00:13.431Z,10.94
2023-02-21T04:01:13.895Z,10.87
2023-02-21T04:02:13.459Z,10.92
2023-02-21T04:03:13.412Z,10.90
2023-02-21T04:04:13.386Z,11.00
2023-02-21T04:05:13.384Z,10.99
2023-02-21T04:06:13.451Z,11.04
2023-02-21T04:07:13.547Z,11.07
2023-02-21T04:08:13.413Z,10.99
2023-02-21T04:09:13.362Z,10.99
2023-02-21T04:10:13.317Z,11.02
2023-02-21T04:11:13.687Z,11.02
2023-02-21T04:12:13.301Z,11.10
2023-02-21T04:13:13.306Z,11.07
2023-02-21T04:14:13.295Z,11.02
2023-02-21T04:15:13.279Z,11.08
2023-02-21T04:16:13.259Z,11.14
2023-02-21T04:17:13.254Z,11.04
2023-02-21T04:18:13.241Z,11.05
2023-02-21T04:19:13.218Z,11.11
2023-02-21T04:20:13.217Z,11.17
2023-02-21T04:21:13.611Z,10.99
2023-02-21T04:22:13.178Z,10.99
2023-02-21T04:23:13.169Z,11.10
2023-02-21T04:24:13.159Z,11.05
2023-02-21T04:25:13.161Z,11.12
2023-02-21T04:26:13.167Z,11.10
2023-02-21T04:27:13.179Z,11.11
2023-02-21T04:28:13.146Z,11.17
2023-02-21T04:29:13.112Z,11.17
2023-02-21T04:30:13.341Z,11.15
2023-02-21T04:31:13.486Z,11.14
2023-02-21T04:32:13.238Z,11.17
2023-02-21T04:33:13.084Z,11.23
2023-02-21T04:34:13.070Z,11.23
2023-02-21T04:35:13.046Z,11.22
2023-02-21T04:36:13.067Z,11.18
2023-02-21T04:37:13.017Z,11.25
2023-02-21T04:38:13.026Z,11.26
2023-02-21T04:39:13.011Z,11.23
2023-02-21T04:40:12.992Z,11.27
2023-02-21T04:41:13.348Z,11.19
2023-02-21T04:42:12.993Z,11.12
2023-02-21T04:43:12.953Z,11.29
2023-02-21T04:44:12.977Z,11.27
2023-02-21T04:45:12.946Z,11.30
2023-02-21T04:46:12.947Z,11.22
2023-02-21T04:47:12.933Z,11.19
2023-02-21T04:48:12.907Z,11.17
2023-02-21T04:49:12.913Z,11.18
2023-02-21T04:50:12.889Z,11.18
2023-02-21T04:51:16.215Z,11.19
2023-02-21T04:52:12.868Z,11.15
2023-02-21T04:53:12.858Z,11.11
2023-02-21T04:54:14.105Z,11.10
2023-02-21T04:55:12.833Z,11.15
2023-02-21T04:56:13.016Z,11.17
2023-02-21T04:57:12.809Z,11.19
2023-02-21T04:58:12.792Z,11.15
2023-02-21T04:59:12.781Z,11.11
2023-02-21T05:00:13.051Z,11.11
2023-02-21T05:01:13.220Z,11.10
2023-02-21T05:02:12.767Z,11.12
2023-02-21T05:03:12.738Z,11.15
2023-02-21T05:04:12.811Z,11.15
2023-02-21T05:05:13.106Z,11.04
2023-02-21T05:06:12.703Z,11.07
2023-02-21T05:07:12.695Z,11.11
2023-02-21T05:08:12.688Z,11.05
2023-02-21T05:09:12.675Z,11.07
2023-02-21T05:10:12.715Z,11.08
2023-02-21T05:11:13.128Z,10.97
2023-02-21T05:12:12.644Z,10.94
2023-02-21T05:13:12.649Z,10.96
2023-02-21T05:14:12.624Z,10.93
2023-02-21T05:15:12.612Z,10.92
2023-02-21T05:16:12.642Z,10.93
2023-02-21T05:17:12.623Z,10.97
2023-02-21T05:18:12.610Z,10.89
2023-02-21T05:19:12.574Z,10.92
2023-02-21T05:20:12.569Z,10.92
2023-02-21T05:21:12.769Z,10.92
2023-02-21T05:22:12.533Z,10.92
2023-02-21T05:23:14.083Z,10.99
2023-02-21T05:24:12.523Z,11.00
2023-02-21T05:25:12.495Z,11.00
2023-02-21T05:26:12.512Z,11.00
2023-02-21T05:27:12.492Z,11.02
2023-02-21T05:28:12.481Z,11.05
2023-02-21T05:29:12.462Z,11.10
2023-02-21T05:30:12.540Z,11.05
2023-02-21T05:31:12.507Z,11.12
2023-02-21T05:32:12.461Z,10.99
2023-02-21T05:33:12.416Z,11.04
2023-02-21T05:34:12.429Z,10.99
2023-02-21T05:35:12.410Z,11.08
2023-02-21T05:36:12.379Z,10.99
2023-02-21T05:37:12.381Z,10.99
2023-02-21T05:38:12.356Z,10.99
2023-02-21T05:39:12.405Z,11.08
2023-02-21T05:40:12.387Z,10.94
2023-02-21T05:41:12.630Z,10.82
2023-02-21T05:42:12.325Z,10.89
2023-02-21T05:43:12.325Z,10.82
2023-02-21T05:44:12.306Z,10.81
2023-02-21T05:45:12.293Z,10.89
2023-02-21T05:46:12.325Z,10.79
2023-02-21T05:47:12.261Z,10.75
2023-02-21T05:48:12.372Z,10.76
2023-02-21T05:49:12.259Z,10.84
2023-02-21T05:50:12.267Z,10.82
2023-02-21T05:51:12.626Z,10.89
2023-02-21T05:52:12.206Z,10.89
2023-02-21T05:53:12.199Z,10.81
2023-02-21T05:54:12.206Z,10.76
2023-02-21T05:55:12.180Z,10.86
2023-02-21T05:56:12.207Z,10.81
2023-02-21T05:57:12.146Z,10.79
2023-02-21T05:58:12.142Z,10.82
2023-02-21T05:59:12.132Z,10.75
2023-02-21T06:00:12.250Z,10.75
2023-02-21T06:01:12.497Z,10.81
2023-02-21T06:02:12.118Z,10.68
2023-02-21T06:03:12.098Z,10.78
2023-02-21T06:04:12.121Z,10.76
2023-02-21T06:05:12.081Z,10.69
2023-02-21T06:06:12.107Z,10.74
2023-02-21T06:07:12.042Z,10.74
2023-02-21T06:08:13.912Z,10.67
2023-02-21T06:09:12.024Z,10.74
2023-02-21T06:10:12.022Z,10.74
2023-02-21T06:11:12.176Z,10.76
2023-02-21T06:12:11.993Z,10.79
2023-02-21T06:13:12.056Z,10.82
2023-02-21T06:14:11.974Z,10.69
2023-02-21T06:15:11.948Z,10.78
2023-02-21T06:16:12.125Z,10.75
2023-02-21T06:17:11.942Z,10.74
2023-02-21T06:18:11.937Z,10.72
2023-02-21T06:19:11.905Z,10.67
2023-02-21T06:20:11.894Z,10.79
2023-02-21T06:21:11.890Z,10.87
2023-02-21T06:22:12.045Z,10.78
2023-02-21T06:23:11.868Z,10.78
2023-02-21T06:24:11.905Z,10.76
2023-02-21T06:25:11.866Z,10.78
2023-02-21T06:26:11.834Z,10.86
2023-02-21T06:27:11.814Z,10.82
2023-02-21T06:28:11.905Z,10.82
2023-02-21T06:29:11.806Z,10.90
2023-02-21T06:30:11.818Z,10.87
2023-02-21T06:31:11.869Z,10.87
2023-02-21T06:32:11.937Z,10.93
2023-02-21T06:33:11.971Z,10.93
2023-02-21T06:34:11.764Z,10.96
2023-02-21T06:35:11.747Z,10.86
2023-02-21T06:36:11.736Z,10.94
2023-02-21T06:37:11.721Z,10.92
2023-02-21T06:38:12.043Z,10.82
2023-02-21T06:39:11.701Z,10.96
2023-02-21T06:40:11.711Z,10.92
2023-02-21T06:41:11.681Z,10.99
2023-02-21T06:42:11.666Z,10.99
2023-02-21T06:43:11.661Z,11.02
2023-02-21T06:44:11.647Z,11.02
2023-02-21T06:45:11.651Z,11.00
2023-02-21T06:46:11.646Z,10.93
2023-02-21T06:47:11.616Z,10.92
2023-02-21T06:48:11.610Z,10.92
2023-02-21T06:49:11.603Z,11.05
2023-02-21T06:50:11.580Z,10.93
2023-02-21T06:51:11.566Z,10.97
2023-02-21T06:52:11.572Z,11.07
2023-02-21T06:53:11.544Z,10.90
2023-02-21T06:54:11.568Z,10.87
2023-02-21T06:55:11.541Z,10.94
2023-02-21T06:56:11.514Z,11.04
2023-02-21T06:57:11.532Z,11.08
2023-02-21T06:58:11.498Z,10.99
2023-02-21T06:59:11.516Z,11.07
2023-02-21T07:00:11.524Z,11.05
2023-02-21T07:01:11.513Z,11.00
2023-02-21T07:02:11.455Z,10.92
2023-02-21T07:03:11.434Z,10.84
2023-02-21T07:04:11.439Z,10.84
2023-02-21T07:05:11.442Z,10.87
2023-02-21T07:06:11.409Z,10.87
2023-02-21T07:07:11.397Z,10.94
2023-02-21T07:08:11.388Z,10.96
2023-02-21T07:09:11.377Z,11.10
2023-02-21T07:10:11.386Z,11.00
2023-02-21T07:11:11.383Z,11.07
2023-02-21T07:12:11.336Z,11.02
2023-02-21T07:13:11.332Z,11.07
2023-02-21T07:14:11.331Z,11.07
2023-02-21T07:15:11.357Z,11.02
2023-02-21T07:16:11.493Z,11.02
2023-02-21T07:17:11.303Z,11.00
2023-02-21T07:18:11.289Z,11.10
2023-02-21T07:19:11.268Z,11.11
2023-02-21T07:20:11.264Z,11.15
2023-02-21T07:21:11.246Z,11.14
2023-02-21T07:22:20.083Z,11.11
2023-02-21T07:23:11.223Z,11.19
2023-02-21T07:24:11.212Z,11.18
2023-02-21T07:25:11.193Z,11.22
2023-02-21T07:26:11.205Z,11.25
2023-02-21T07:27:11.193Z,11.22
2023-02-21T07:28:11.166Z,11.27
2023-02-21T07:29:11.218Z,11.37
2023-02-21T07:30:11.188Z,11.44
2023-02-21T07:31:11.245Z,11.32
2023-02-21T07:32:11.137Z,11.36
2023-02-21T07:33:11.125Z,11.43
2023-02-21T07:34:11.103Z,11.41
2023-02-21T07:35:11.093Z,11.36
2023-02-21T07:36:11.083Z,11.43
2023-02-21T07:37:11.074Z,11.45
2023-02-21T07:38:11.091Z,11.32
2023-02-21T07:39:11.050Z,11.35
2023-02-21T07:40:11.034Z,11.25
2023-02-21T07:41:11.036Z,11.26
2023-02-21T07:42:13.311Z,11.14
2023-02-21T07:43:11.008Z,11.18
2023-02-21T07:44:11.002Z,11.18
2023-02-21T07:45:10.980Z,11.23
2023-02-21T07:46:11.003Z,11.14
2023-02-21T07:47:10.967Z,11.30
2023-02-21T07:48:10.943Z,11.36
2023-02-21T07:49:10.960Z,11.41
2023-02-21T07:50:10.926Z,11.44
2023-02-21T07:51:10.933Z,11.41
2023-02-21T07:52:10.904Z,11.35
2023-02-21T07:53:11.305Z,11.43
2023-02-21T07:54:10.876Z,11.51
2023-02-21T07:55:10.885Z,11.52
2023-02-21T07:56:10.877Z,11.51
2023-02-21T07:57:10.846Z,11.54
2023-02-21T07:58:10.851Z,11.63
2023-02-21T07:59:10.827Z,11.62
2023-02-21T08:00:10.876Z,11.72
2023-02-21T08:01:10.814Z,11.69
2023-02-21T08:02:10.787Z,11.69
2023-02-21T08:03:10.788Z,11.73
2023-02-21T08:04:10.780Z,11.84
2023-02-21T08:05:10.767Z,11.80
2023-02-21T08:06:10.753Z,11.86
2023-02-21T08:07:10.746Z,11.83
2023-02-21T08:08:10.723Z,11.94
2023-02-21T08:09:10.709Z,12.00
2023-02-21T08:10:10.709Z,12.04
2023-02-21T08:11:10.699Z,12.09
2023-02-21T08:12:10.677Z,11.99
2023-02-21T08:13:10.708Z,12.10
2023-02-21T08:14:10.693Z,12.12
2023-02-21T08:15:10.653Z,12.02
2023-02-21T08:16:10.667Z,12.07
2023-02-21T08:17:10.627Z,12.02
2023-02-21T08:18:10.617Z,12.04
2023-02-21T08:19:10.620Z,12.02
2023-02-21T08:20:10.593Z,12.04
2023-02-21T08:21:10.600Z,12.04
2023-02-21T08:22:10.569Z,12.03
2023-02-21T08:23:10.561Z,12.02
2023-02-21T08:24:10.552Z,12.03
2023-02-21T08:25:10.579Z,12.04
2023-02-21T08:26:10.548Z,12.09
2023-02-21T08:27:10.512Z,11.99
2023-02-21T08:28:10.496Z,11.94
2023-02-21T08:29:10.496Z,11.94
2023-02-21T08:30:10.562Z,11.90
2023-02-21T08:31:10.495Z,12.00
2023-02-21T08:32:10.477Z,11.99
2023-02-21T08:33:10.447Z,12.04
2023-02-21T08:34:10.440Z,11.94
2023-02-21T08:35:10.430Z,11.94
2023-02-21T08:36:10.417Z,11.95
2023-02-21T08:37:10.414Z,12.00
2023-02-21T08:38:10.416Z,12.07
2023-02-21T08:39:10.409Z,12.09
2023-02-21T08:40:10.375Z,12.12
2023-02-21T08:41:10.372Z,12.17
2023-02-21T08:42:10.398Z,12.27
2023-02-21T08:43:10.357Z,12.27
2023-02-21T08:44:10.356Z,12.20
2023-02-21T08:45:10.357Z,12.27
2023-02-21T08:46:10.329Z,12.27
2023-02-21T08:47:10.297Z,12.31
2023-02-21T08:48:10.319Z,12.27
2023-02-21T08:49:10.291Z,12.40
2023-02-21T08:50:10.309Z,12.31
2023-02-21T08:51:10.252Z,12.53
2023-02-21T08:52:10.241Z,12.49
2023-02-21T08:53:10.239Z,12.55
2023-02-21T08:54:10.224Z,12.60
2023-02-21T08:55:10.213Z,12.58
2023-02-21T08:56:10.188Z,12.67
2023-02-21T08:57:10.182Z,12.79
2023-02-21T08:58:10.169Z,12.86
2023-02-21T08:59:10.179Z,12.87
2023-02-21T09:00:10.152Z,12.95
2023-02-21T09:01:10.189Z,13.08
2023-02-21T09:02:10.268Z,13.11
2023-02-21T09:03:10.139Z,13.22
2023-02-21T09:04:10.108Z,13.25
2023-02-21T09:05:10.129Z,13.25
2023-02-21T09:06:10.083Z,13.23
2023-02-21T09:07:10.106Z,13.13
2023-02-21T09:08:10.059Z,13.04
2023-02-21T09:09:10.064Z,12.94
2023-02-21T09:10:10.037Z,12.90
2023-02-21T09:11:10.058Z,12.87
2023-02-21T09:12:10.027Z,12.95
2023-02-21T09:13:10.004Z,12.85
2023-02-21T09:14:09.992Z,12.86
2023-02-21T09:15:09.978Z,12.93
2023-02-21T09:16:10.014Z,12.85
2023-02-21T09:17:09.976Z,12.82
2023-02-21T09:18:10.016Z,12.83
2023-02-21T09:19:09.941Z,12.70
2023-02-21T09:20:09.947Z,12.70
2023-02-21T09:21:09.945Z,12.70
2023-02-21T09:22:09.918Z,12.58
2023-02-21T09:23:09.901Z,12.58
2023-02-21T09:24:09.902Z,12.60
2023-02-21T09:25:09.878Z,12.47
2023-02-21T09:26:09.865Z,12.54
2023-02-21T09:27:09.879Z,12.64
2023-02-21T09:28:09.844Z,12.49
2023-02-21T09:29:09.838Z,12.49
2023-02-21T09:30:09.894Z,12.53
2023-02-21T09:31:09.807Z,12.57
2023-02-21T09:32:09.827Z,12.53
2023-02-21T09:33:09.798Z,12.58
2023-02-21T09:34:09.824Z,12.43
2023-02-21T09:35:09.776Z,12.42
2023-02-21T09:36:09.763Z,12.39
2023-02-21T09:37:09.749Z,12.39
2023-02-21T09:38:09.744Z,12.47
2023-02-21T09:39:09.799Z,12.42
2023-02-21T09:40:09.714Z,12.31
2023-02-21T09:41:09.700Z,12.36
2023-02-21T09:42:09.695Z,12.37
2023-02-21T09:43:09.698Z,12.37
2023-02-21T09:44:09.676Z,12.37
2023-02-21T09:45:09.679Z,12.42
2023-02-21T09:46:09.783Z,12.46
2023-02-21T09:47:09.634Z,12.47
2023-02-21T09:48:09.648Z,12.49
2023-02-21T09:49:09.611Z,12.50
2023-02-21T09:50:10.532Z,12.49
2023-02-21T09:51:09.588Z,12.50
2023-02-21T09:52:09.600Z,12.47
2023-02-21T09:53:09.564Z,12.62
2023-02-21T09:54:09.571Z,12.60
2023-02-21T09:55:09.545Z,12.58
2023-02-21T09:56:09.530Z,12.58
2023-02-21T09:57:09.528Z,12.72
2023-02-21T09:58:09.542Z,12.64
2023-02-21T09:59:09.510Z,12.67
2023-02-21T10:00:09.500Z,12.76
2023-02-21T10:01:09.540Z,12.79
2023-02-21T10:02:09.470Z,12.82
2023-02-21T10:03:09.454Z,13.00
2023-02-21T10:04:09.537Z,12.97
2023-02-21T10:05:09.447Z,12.98
2023-02-21T10:06:09.449Z,12.93
2023-02-21T10:07:09.416Z,12.95
2023-02-21T10:08:09.406Z,12.94
2023-02-21T10:09:09.412Z,12.93
2023-02-21T10:10:09.392Z,12.98
2023-02-21T10:11:09.376Z,13.00
2023-02-21T10:12:09.361Z,13.05
2023-02-21T10:13:09.388Z,13.13
2023-02-21T10:14:09.340Z,13.37
2023-02-21T10:15:09.341Z,13.65
2023-02-21T10:16:09.400Z,13.95
2023-02-21T10:17:09.309Z,14.00
2023-02-21T10:18:09.295Z,14.17
2023-02-21T10:19:09.281Z,14.44
2023-02-21T10:20:09.287Z,14.41
2023-02-21T10:21:09.267Z,14.44
2023-02-21T10:22:09.271Z,14.53
2023-02-21T10:23:09.244Z,14.65
2023-02-21T10:24:09.230Z,14.68
2023-02-21T10:25:09.220Z,14.69
2023-02-21T10:26:09.216Z,14.91
2023-02-21T10:27:09.207Z,14.99
2023-02-21T10:28:09.178Z,15.02
2023-02-21T10:29:09.172Z,15.00
2023-02-21T10:30:09.190Z,14.81
2023-02-21T10:31:09.170Z,14.68
2023-02-21T10:32:09.220Z,14.62
2023-02-21T10:33:09.132Z,14.43
2023-02-21T10:34:09.128Z,14.20
2023-02-21T10:35:09.101Z,14.18
2023-02-21T10:36:09.088Z,14.11
2023-02-21T10:37:09.106Z,13.99
2023-02-21T10:38:09.105Z,13.90
2023-02-21T10:39:09.064Z,13.87
2023-02-21T10:40:09.389Z,13.77
2023-02-21T10:41:09.035Z,13.72
2023-02-21T10:42:09.040Z,13.70
2023-02-21T10:43:09.013Z,13.74
2023-02-21T10:44:09.036Z,13.79
2023-02-21T10:45:09.009Z,13.70
2023-02-21T10:46:09.101Z,13.77
2023-02-21T10:47:08.969Z,13.78
2023-02-21T10:48:08.968Z,13.63
2023-02-21T10:49:08.971Z,13.71
2023-02-21T10:50:08.969Z,13.62
2023-02-21T10:51:08.939Z,13.56
2023-02-21T10:52:08.925Z,13.56
2023-02-21T10:53:08.990Z,13.53
2023-02-21T10:54:08.930Z,13.50
2023-02-21T10:55:10.615Z,13.50
2023-02-21T10:56:08.878Z,13.53
2023-02-21T10:57:08.868Z,13.50
2023-02-21T10:58:08.875Z,13.35
2023-02-21T10:59:08.845Z,13.38
2023-02-21T11:00:08.843Z,13.33
2023-02-21T11:01:08.881Z,13.31
2023-02-21T11:02:08.837Z,13.31
2023-02-21T11:03:08.805Z,13.35
2023-02-21T11:04:08.801Z,13.38
2023-02-21T11:05:08.799Z,13.41
2023-02-21T11:06:08.771Z,13.47
2023-02-21T11:07:08.765Z,13.41
2023-02-21T11:08:08.742Z,13.38
2023-02-21T11:09:08.739Z,13.44
2023-02-21T11:10:08.735Z,13.39
2023-02-21T11:11:08.733Z,13.41
2023-02-21T11:12:08.707Z,13.46
2023-02-21T11:13:08.689Z,13.39
2023-02-21T11:14:08.691Z,13.50
2023-02-21T11:15:08.674Z,13.46
2023-02-21T11:16:08.800Z,13.49
2023-02-21T11:17:08.647Z,13.44
2023-02-21T11:18:08.646Z,13.56
2023-02-21T11:19:08.635Z,13.57
2023-02-21T11:20:08.635Z,13.59
2023-02-21T11:21:08.698Z,13.59
2023-02-21T11:22:08.607Z,13.56
2023-02-21T11:23:08.586Z,13.62
2023-02-21T11:24:08.573Z,13.71
2023-02-21T11:25:08.565Z,13.70
2023-02-21T11:26:08.561Z,13.63
2023-02-21T11:27:08.579Z,13.59
2023-02-21T11:28:08.537Z,13.52
2023-02-21T11:29:08.526Z,13.42
2023-02-21T11:30:08.551Z,13.39
2023-02-21T11:31:08.531Z,13.27
2023-02-21T11:32:08.606Z,13.28
2023-02-21T11:33:08.489Z,13.31
2023-02-21T11:34:09.158Z,13.39
2023-02-21T11:35:08.466Z,13.47
2023-02-21T11:36:08.447Z,13.38
2023-02-21T11:37:08.466Z,13.42
2023-02-21T11:38:08.473Z,13.46
2023-02-21T11:39:08.420Z,13.53
2023-02-21T11:40:08.397Z,13.54
2023-02-21T11:41:08.405Z,13.60
2023-02-21T11:42:08.396Z,13.57
2023-02-21T11:43:08.364Z,13.70
2023-02-21T11:44:08.366Z,13.79
2023-02-21T11:45:08.375Z,13.78
2023-02-21T11:46:08.371Z,13.83
2023-02-21T11:47:08.331Z,13.92
2023-02-21T11:48:08.331Z,13.95
2023-02-21T11:49:08.347Z,14.03
2023-02-21T11:50:08.409Z,13.95
2023-02-21T11:51:08.289Z,14.05
2023-02-21T11:52:08.280Z,14.07
2023-02-21T11:53:08.289Z,14.17
2023-02-21T11:54:08.265Z,14.07
2023-02-21T11:55:08.274Z,14.17
2023-02-21T11:56:08.225Z,14.12
2023-02-21T11:57:08.269Z,14.10
2023-02-21T11:58:08.215Z,14.29
2023-02-21T11:59:08.206Z,14.17
2023-02-21T12:00:08.176Z,14.15
2023-02-21T12:01:08.279Z,14.12
2023-02-21T12:02:08.268Z,14.15
2023-02-21T12:03:08.182Z,14.17
2023-02-21T12:04:08.138Z,14.05
2023-02-21T12:05:08.164Z,14.03
2023-02-21T12:06:08.202Z,13.83
2023-02-21T12:07:08.108Z,13.68
2023-02-21T12:08:08.166Z,13.67
2023-02-21T12:09:08.166Z,13.63
2023-02-21T12:10:08.078Z,13.57
2023-02-21T12:11:08.196Z,13.52
2023-02-21T12:12:08.103Z,13.52
2023-02-21T12:13:08.244Z,13.54
2023-02-21T12:14:08.143Z,13.38
2023-02-21T12:15:08.358Z,13.28
2023-02-21T12:16:08.110Z,13.19
2023-02-21T12:17:07.999Z,13.23
2023-02-21T12:18:07.996Z,13.27
2023-02-21T12:19:08.012Z,13.22
2023-02-21T12:20:07.982Z,13.27
2023-02-21T12:21:10.950Z,13.20
2023-02-21T12:22:07.957Z,13.15
2023-02-21T12:23:07.953Z,13.05
2023-02-21T12:24:07.922Z,13.03
2023-02-21T12:25:07.930Z,13.00
2023-02-21T12:26:07.904Z,13.03
2023-02-21T12:27:07.888Z,13.00
2023-02-21T12:28:07.880Z,13.03
2023-02-21T12:29:07.878Z,13.04
2023-02-21T12:30:07.946Z,13.08
2023-02-21T12:31:07.888Z,13.04
2023-02-21T12:32:07.885Z,13.05
2023-02-21T12:33:07.830Z,13.12
2023-02-21T12:34:07.820Z,13.13
2023-02-21T12:35:07.801Z,13.31
2023-02-21T12:36:07.816Z,13.38
2023-02-21T12:37:07.797Z,13.42
2023-02-21T12:38:07.773Z,13.37
2023-02-21T12:39:07.767Z,13.42
2023-02-21T12:40:07.765Z,13.47
2023-02-21T12:41:07.754Z,13.46
2023-02-21T12:42:07.728Z,13.50
2023-02-21T12:43:07.712Z,13.54
2023-02-21T12:44:07.719Z,13.54
2023-02-21T12:45:07.732Z,13.54
2023-02-21T12:46:07.753Z,13.52
2023-02-21T12:47:07.723Z,13.53
2023-02-21T12:48:07.667Z,13.59
2023-02-21T12:49:07.664Z,13.71
2023-02-21T12:50:07.699Z,13.62
2023-02-21T12:51:07.640Z,13.67
2023-02-21T12:52:07.676Z,13.72
2023-02-21T12:53:07.655Z,13.67
2023-02-21T12:54:07.603Z,13.56